createdAt,value
2018-10-17T00:02:13.619Z,9.87
2018-10-17T00:04:41.296Z,9.27
2018-10-17T00:07:09.029Z,10.37
2018-10-17T00:09:36.665Z,10.07
2018-10-17T00:12:04.467Z,9.07
2018-10-17T00:14:32.105Z,9.23
2018-10-17T00:16:59.780Z,9.17
2018-10-17T00:19:27.369Z,13.30
2018-10-17T00:21:55.083Z,10.10
2018-10-17T00:24:22.727Z,9.33
2018-10-17T00:26:50.388Z,8.73
2018-10-17T00:29:18.041Z,11.43
2018-10-17T00:31:45.713Z,9.17
2018-10-17T00:34:13.581Z,12.00
2018-10-17T00:36:41.236Z,9.80
2018-10-17T00:39:10.267Z,11.77
2018-10-17T00:41:38.018Z,9.70
2018-10-17T00:44:05.700Z,8.93
2018-10-17T00:46:33.402Z,10.23
2018-10-17T00:49:01.226Z,9.30
2018-10-17T00:51:28.875Z,9.67
2018-10-17T00:53:56.478Z,9.43
2018-10-17T00:56:24.162Z,13.50
2018-10-17T00:59:04.657Z,10.40
2018-10-17T01:01:32.230Z,9.80
2018-10-17T01:03:59.836Z,9.53
2018-10-17T01:06:27.463Z,12.10
2018-10-17T01:08:55.101Z,10.00
2018-10-17T01:11:22.784Z,9.90
2018-10-17T01:13:50.527Z,8.83
2018-10-17T01:16:18.160Z,9.03
2018-10-17T01:18:45.817Z,9.47
2018-10-17T01:21:13.409Z,10.83
2018-10-17T01:23:41.049Z,9.97
2018-10-17T01:26:08.664Z,9.93
2018-10-17T01:28:36.252Z,9.83
2018-10-17T01:31:04.305Z,12.50
2018-10-17T01:33:32.029Z,11.37
2018-10-17T01:35:59.639Z,10.37
2018-10-17T01:38:27.265Z,10.43
2018-10-17T01:40:55.031Z,10.07
2018-10-17T01:43:22.582Z,8.70
2018-10-17T01:45:50.825Z,9.70
2018-10-17T01:48:18.507Z,10.13
2018-10-17T01:50:46.111Z,9.40
2018-10-17T01:53:13.817Z,11.60
2018-10-17T01:55:41.534Z,8.80
2018-10-17T01:58:09.191Z,9.60
2018-10-17T02:00:36.782Z,12.20
2018-10-17T02:03:04.515Z,9.40
2018-10-17T02:05:32.147Z,11.30
2018-10-17T02:07:59.782Z,10.20
2018-10-17T02:10:27.415Z,10.60
2018-10-17T02:12:55.050Z,9.33
2018-10-17T02:15:22.623Z,9.70
2018-10-17T02:17:50.375Z,9.53
2018-10-17T02:20:17.979Z,10.00
2018-10-17T02:22:45.679Z,9.10
2018-10-17T02:25:13.402Z,10.60
2018-10-17T02:27:40.940Z,8.73
2018-10-17T02:30:08.744Z,9.37
2018-10-17T02:32:36.260Z,10.07
2018-10-17T02:35:09.724Z,11.73
2018-10-17T02:37:37.306Z,9.53
2018-10-17T02:40:05.250Z,9.97
2018-10-17T02:42:32.852Z,9.20
2018-10-17T02:45:00.486Z,11.70
2018-10-17T02:47:28.116Z,9.83
2018-10-17T02:49:55.750Z,8.70
2018-10-17T02:52:23.480Z,9.50
2018-10-17T02:54:51.138Z,11.97
2018-10-17T02:57:18.810Z,11.57
2018-10-17T02:59:46.433Z,9.37
2018-10-17T03:02:14.174Z,10.23
2018-10-17T03:04:41.802Z,9.50
2018-10-17T03:07:09.619Z,10.10
2018-10-17T03:09:37.262Z,9.67
2018-10-17T03:12:05.049Z,9.60
2018-10-17T03:14:32.666Z,10.47
2018-10-17T03:17:00.308Z,9.57
2018-10-17T03:19:27.920Z,9.57
2018-10-17T03:21:55.588Z,13.40
2018-10-17T03:24:23.323Z,9.23
2018-10-17T03:26:50.986Z,9.43
2018-10-17T03:29:18.839Z,12.43
2018-10-17T03:31:46.425Z,10.60
2018-10-17T03:34:14.214Z,12.17
2018-10-17T03:36:41.899Z,11.07
2018-10-17T03:39:11.182Z,10.47
2018-10-17T03:41:39.150Z,9.53
2018-10-17T03:44:07.722Z,10.43
2018-10-17T03:46:35.370Z,8.83
2018-10-17T03:49:03.285Z,12.63
2018-10-17T03:51:31.020Z,9.67
2018-10-17T03:53:58.997Z,9.93
2018-10-17T03:56:26.871Z,13.00
2018-10-17T03:58:54.663Z,9.70
2018-10-17T04:01:22.275Z,15.03
2018-10-17T04:03:49.992Z,12.37
2018-10-17T04:06:17.598Z,11.13
2018-10-17T04:08:45.303Z,11.20
2018-10-17T04:11:13.081Z,9.23
2018-10-17T04:13:40.655Z,10.60
2018-10-17T04:16:08.350Z,12.90
2018-10-17T04:18:36.407Z,13.63
2018-10-17T04:21:04.836Z,11.33
2018-10-17T04:23:32.466Z,10.27
2018-10-17T04:26:00.127Z,10.47
2018-10-17T04:28:27.731Z,11.90
2018-10-17T04:30:55.391Z,11.40
2018-10-17T04:33:23.044Z,10.73
2018-10-17T04:35:50.752Z,11.23
2018-10-17T04:38:18.415Z,10.70
2018-10-17T04:40:46.006Z,11.33
2018-10-17T04:43:13.639Z,11.03
2018-10-17T04:45:41.322Z,11.90
2018-10-17T04:48:09.081Z,9.37
2018-10-17T04:50:36.710Z,11.63
2018-10-17T04:53:04.398Z,11.90
2018-10-17T04:55:31.990Z,11.50
2018-10-17T04:57:59.620Z,10.83
2018-10-17T05:00:27.234Z,12.70
2018-10-17T05:02:54.843Z,12.80
2018-10-17T05:05:22.480Z,10.90
2018-10-17T05:07:50.090Z,13.23
2018-10-17T05:10:17.711Z,15.70
2018-10-17T05:12:45.439Z,12.83
2018-10-17T05:15:13.103Z,12.63
2018-10-17T05:17:40.828Z,12.50
2018-10-17T05:20:08.576Z,12.83
2018-10-17T05:22:36.191Z,11.17
2018-10-17T05:25:04.954Z,10.60
2018-10-17T05:27:32.534Z,10.90
2018-10-17T05:30:00.203Z,15.90
2018-10-17T05:32:27.869Z,11.80
2018-10-17T05:34:56.320Z,10.73
2018-10-17T05:37:24.031Z,13.30
2018-10-17T05:39:51.640Z,11.03
2018-10-17T05:42:19.238Z,11.80
2018-10-17T05:44:46.879Z,13.37
2018-10-17T05:47:14.593Z,13.57
2018-10-17T05:49:42.351Z,18.97
2018-10-17T05:52:09.955Z,56.50
2018-10-17T05:54:37.610Z,20.60
2018-10-17T05:57:05.727Z,16.13
2018-10-17T05:59:33.393Z,17.13
2018-10-17T06:02:04.132Z,15.73
2018-10-17T06:04:31.643Z,15.23
2018-10-17T06:06:59.436Z,16.97
2018-10-17T06:09:27.051Z,13.03
2018-10-17T06:11:54.798Z,14.87
2018-10-17T06:14:22.490Z,15.93
2018-10-17T06:16:50.139Z,15.83
2018-10-17T06:19:17.746Z,15.00
2018-10-17T06:21:45.440Z,14.60
2018-10-17T06:24:13.058Z,12.20
2018-10-17T06:26:40.780Z,14.70
2018-10-17T06:29:08.534Z,16.90
2018-10-17T06:31:36.070Z,15.90
2018-10-17T06:34:03.734Z,12.67
2018-10-17T06:36:31.427Z,13.60
2018-10-17T06:38:59.047Z,12.27
2018-10-17T06:41:26.778Z,12.57
2018-10-17T06:43:54.387Z,12.47
2018-10-17T06:46:22.016Z,15.60
2018-10-17T06:48:49.753Z,13.93
2018-10-17T06:51:17.374Z,15.43
2018-10-17T06:53:45.051Z,14.60
2018-10-17T06:56:12.642Z,16.10
2018-10-17T06:58:40.224Z,19.07
2018-10-17T07:01:07.904Z,18.07
2018-10-17T07:03:35.475Z,15.93
2018-10-17T07:06:03.196Z,15.07
2018-10-17T07:08:31.029Z,14.13
2018-10-17T07:10:58.595Z,21.07
2018-10-17T07:13:26.301Z,13.60
2018-10-17T07:15:53.992Z,17.53
2018-10-17T07:18:21.729Z,14.43
2018-10-17T07:20:49.363Z,16.77
2018-10-17T07:23:17.106Z,13.97
2018-10-17T07:25:45.451Z,15.70
2018-10-17T07:28:13.290Z,16.63
2018-10-17T07:30:41.044Z,18.17
2018-10-17T07:33:08.935Z,17.50
2018-10-17T07:35:36.627Z,14.50
2018-10-17T07:38:05.136Z,18.67
2018-10-17T07:40:32.946Z,18.00
2018-10-17T07:43:00.626Z,14.57
2018-10-17T07:45:28.256Z,13.33
2018-10-17T07:47:55.888Z,14.67
2018-10-17T07:50:23.494Z,17.40
2018-10-17T07:52:51.214Z,16.03
2018-10-17T07:55:18.804Z,16.47
2018-10-17T07:57:46.405Z,17.20
2018-10-17T08:00:14.409Z,24.23
2018-10-17T08:02:41.968Z,15.70
2018-10-17T08:05:10.112Z,18.03
2018-10-17T08:07:37.716Z,15.87
2018-10-17T08:10:07.478Z,18.03
2018-10-17T08:12:35.055Z,13.33
2018-10-17T08:15:02.785Z,15.60
2018-10-17T08:17:30.503Z,15.50
2018-10-17T08:19:58.202Z,15.30
2018-10-17T08:22:25.858Z,17.90
2018-10-17T08:24:53.490Z,17.30
2018-10-17T08:27:21.133Z,14.30
2018-10-17T08:29:48.906Z,18.43
2018-10-17T08:32:16.507Z,14.30
2018-10-17T08:34:44.123Z,16.20
2018-10-17T08:37:12.102Z,20.03
2018-10-17T08:39:39.315Z,14.87
2018-10-17T08:42:07.191Z,15.27
2018-10-17T08:44:34.878Z,16.83
2018-10-17T08:47:02.541Z,14.97
2018-10-17T08:49:30.244Z,12.93
2018-10-17T08:51:57.877Z,14.70
2018-10-17T08:54:25.475Z,12.63
2018-10-17T08:56:53.104Z,13.30
2018-10-17T08:59:20.806Z,15.73
2018-10-17T09:01:48.492Z,15.10
2018-10-17T09:04:16.102Z,20.00
2018-10-17T09:06:43.719Z,18.07
2018-10-17T09:09:12.794Z,16.33
2018-10-17T09:11:40.880Z,15.27
2018-10-17T09:14:08.919Z,13.90
2018-10-17T09:16:36.559Z,13.60
2018-10-17T09:19:04.270Z,19.80
2018-10-17T09:21:32.122Z,16.10
2018-10-17T09:24:00.188Z,16.03
2018-10-17T09:26:27.802Z,15.17
2018-10-17T09:28:55.434Z,13.63
2018-10-17T09:31:23.054Z,13.50
2018-10-17T09:33:50.669Z,14.30
2018-10-17T09:36:18.327Z,15.03
2018-10-17T09:38:46.090Z,12.37
2018-10-17T09:41:13.742Z,15.70
2018-10-17T09:43:41.623Z,14.00
2018-10-17T09:46:17.247Z,10.20
2018-10-17T09:48:44.921Z,12.10
2018-10-17T09:51:12.538Z,10.60
2018-10-17T09:53:40.150Z,11.80
2018-10-17T09:56:08.870Z,13.27
2018-10-17T09:58:36.516Z,11.40
2018-10-17T10:01:09.971Z,8.57
2018-10-17T10:03:37.602Z,8.23
2018-10-17T10:06:05.380Z,10.43
2018-10-17T10:08:32.974Z,8.40
2018-10-17T10:11:00.609Z,6.73
2018-10-17T10:13:28.228Z,8.67
2018-10-17T10:15:55.924Z,10.27
2018-10-17T10:18:23.638Z,8.27
2018-10-17T10:20:51.359Z,7.70
2018-10-17T10:23:19.052Z,8.17
2018-10-17T10:25:46.642Z,7.60
2018-10-17T10:28:14.379Z,9.77
2018-10-17T10:30:41.955Z,7.60
2018-10-17T10:33:09.604Z,7.73
2018-10-17T10:35:37.268Z,8.10
2018-10-17T10:38:05.598Z,8.90
2018-10-17T10:40:33.930Z,8.37
2018-10-17T10:43:01.610Z,9.17
2018-10-17T10:45:29.277Z,8.43
2018-10-17T10:47:57.031Z,8.33
2018-10-17T10:50:24.611Z,8.90
2018-10-17T10:52:52.248Z,11.10
2018-10-17T10:55:19.910Z,7.57
2018-10-17T10:57:47.536Z,7.70
2018-10-17T11:00:15.266Z,10.60
2018-10-17T11:02:42.867Z,8.00
2018-10-17T11:05:10.659Z,10.60
2018-10-17T11:07:38.282Z,7.63
2018-10-17T11:10:06.081Z,9.80
2018-10-17T11:12:33.690Z,8.33
2018-10-17T11:15:01.578Z,7.37
2018-10-17T11:17:29.090Z,8.83
2018-10-17T11:19:56.740Z,8.83
2018-10-17T11:22:24.398Z,7.43
2018-10-17T11:24:52.074Z,9.70
2018-10-17T11:27:19.784Z,8.90
2018-10-17T11:29:47.443Z,8.80
2018-10-17T11:32:15.058Z,8.37
2018-10-17T11:34:42.725Z,7.23
2018-10-17T11:37:10.346Z,6.60
2018-10-17T11:39:37.976Z,10.20
2018-10-17T11:42:05.686Z,10.47
2018-10-17T11:44:33.294Z,8.77
2018-10-17T11:47:00.947Z,7.10
2018-10-17T11:49:28.558Z,8.57
2018-10-17T11:51:56.238Z,6.70
2018-10-17T11:54:23.916Z,6.03
2018-10-17T11:56:51.542Z,6.70
2018-10-17T11:59:19.283Z,5.53
2018-10-17T12:01:46.830Z,5.57
2018-10-17T12:04:14.720Z,7.23
2018-10-17T12:06:42.111Z,6.57
2018-10-17T12:09:09.999Z,5.63
2018-10-17T12:11:37.607Z,5.90
2018-10-17T12:14:05.510Z,5.90
2018-10-17T12:16:33.152Z,5.93
2018-10-17T12:19:00.774Z,6.80
2018-10-17T12:21:28.410Z,7.80
2018-10-17T12:23:56.044Z,5.60
2018-10-17T12:26:23.706Z,6.63
2018-10-17T12:28:51.422Z,5.77
2018-10-17T12:31:19.066Z,6.00
2018-10-17T12:33:46.715Z,4.87
2018-10-17T12:36:14.355Z,8.07
2018-10-17T12:38:41.969Z,5.30
2018-10-17T12:41:09.803Z,4.30
2018-10-17T12:43:37.314Z,5.97
2018-10-17T12:46:04.982Z,9.23
2018-10-17T12:48:32.615Z,5.70
2018-10-17T12:51:00.291Z,6.93
2018-10-17T12:53:27.988Z,5.07
2018-10-17T12:55:55.666Z,5.87
2018-10-17T12:58:23.262Z,6.23
2018-10-17T13:00:50.948Z,6.43
2018-10-17T13:03:18.735Z,6.00
2018-10-17T13:05:46.382Z,5.40
2018-10-17T13:08:14.047Z,5.87
2018-10-17T13:10:41.763Z,6.07
2018-10-17T13:13:09.483Z,6.40
2018-10-17T13:15:37.098Z,5.97
2018-10-17T13:18:05.052Z,7.57
2018-10-17T13:20:32.717Z,6.00
2018-10-17T13:23:00.578Z,5.07
2018-10-17T13:25:28.258Z,5.33
2018-10-17T13:27:55.924Z,6.13
2018-10-17T13:30:23.566Z,5.87
2018-10-17T13:32:51.199Z,6.47
2018-10-17T13:35:18.869Z,6.57
2018-10-17T13:37:46.458Z,5.20
2018-10-17T13:40:14.535Z,5.20
2018-10-17T13:42:42.158Z,5.07
2018-10-17T13:45:09.767Z,5.13
2018-10-17T13:47:37.394Z,6.63
2018-10-17T13:50:05.204Z,6.50
2018-10-17T13:52:32.835Z,5.80
2018-10-17T13:55:00.524Z,5.07
2018-10-17T13:57:28.183Z,5.47
2018-10-17T13:59:56.028Z,5.00
2018-10-17T14:02:24.057Z,5.17
2018-10-17T14:04:51.826Z,5.03
2018-10-17T14:07:19.627Z,5.47
2018-10-17T14:09:47.144Z,8.13
2018-10-17T14:12:15.048Z,5.30
2018-10-17T14:14:42.761Z,5.83
2018-10-17T14:17:10.398Z,8.00
2018-10-17T14:19:38.239Z,5.13
2018-10-17T14:22:06.465Z,6.73
2018-10-17T14:24:34.146Z,5.23
2018-10-17T14:27:01.936Z,5.57
2018-10-17T14:29:29.799Z,7.53
2018-10-17T14:31:57.438Z,6.57
2018-10-17T14:34:25.037Z,8.23
2018-10-17T14:36:52.715Z,7.07
2018-10-17T14:39:20.458Z,6.37
2018-10-17T14:41:48.145Z,6.30
2018-10-17T14:44:15.763Z,5.80
2018-10-17T14:46:43.332Z,8.30
2018-10-17T14:49:11.152Z,6.53
2018-10-17T14:51:39.091Z,6.30
2018-10-17T14:54:06.735Z,6.20
2018-10-17T14:56:34.421Z,7.90
2018-10-17T14:59:02.216Z,5.03
2018-10-17T15:01:30.181Z,5.00
2018-10-17T15:03:57.819Z,4.80
2018-10-17T15:06:25.411Z,8.73
2018-10-17T15:08:53.040Z,4.90
2018-10-17T15:11:20.903Z,7.20
2018-10-17T15:13:48.325Z,4.90
2018-10-17T15:16:16.155Z,6.00
2018-10-17T15:18:43.803Z,6.73
2018-10-17T15:21:11.519Z,5.90
2018-10-17T15:23:39.239Z,5.53
2018-10-17T15:26:06.870Z,7.40
2018-10-17T15:28:34.477Z,5.70
2018-10-17T15:31:02.151Z,5.53
2018-10-17T15:33:29.770Z,6.90
2018-10-17T15:35:57.382Z,5.70
2018-10-17T15:38:25.023Z,5.70
2018-10-17T15:40:52.779Z,5.37
2018-10-17T15:43:20.507Z,10.50
2018-10-17T15:45:48.682Z,6.43
2018-10-17T15:48:16.350Z,5.97
2018-10-17T15:50:43.957Z,5.83
2018-10-17T15:53:11.996Z,7.77
2018-10-17T15:55:39.539Z,5.40
2018-10-17T15:58:07.180Z,5.67
2018-10-17T16:00:34.830Z,6.90
2018-10-17T16:03:02.492Z,7.03
2018-10-17T16:05:30.197Z,9.00
2018-10-17T16:07:57.870Z,9.27
2018-10-17T16:10:25.477Z,8.63
2018-10-17T16:12:53.095Z,6.87
2018-10-17T16:15:20.738Z,6.57
2018-10-17T16:17:48.396Z,6.97
2018-10-17T16:20:16.110Z,6.50
2018-10-17T16:22:43.779Z,10.13
2018-10-17T16:25:11.391Z,5.90
2018-10-17T16:27:39.032Z,5.47
2018-10-17T16:30:09.011Z,9.57
2018-10-17T16:32:36.707Z,7.30
2018-10-17T16:35:05.137Z,6.60
2018-10-17T16:37:32.782Z,7.00
2018-10-17T16:40:00.385Z,9.20
2018-10-17T16:42:28.081Z,8.07
2018-10-17T16:44:55.691Z,10.87
2018-10-17T16:47:23.421Z,7.07
2018-10-17T16:49:51.106Z,7.60
2018-10-17T16:52:18.734Z,9.33
2018-10-17T16:54:46.394Z,9.40
2018-10-17T16:57:14.076Z,6.70
2018-10-17T16:59:41.648Z,7.50
2018-10-17T17:02:09.302Z,7.33
2018-10-17T17:04:37.023Z,8.63
2018-10-17T17:07:04.856Z,7.43
2018-10-17T17:09:32.518Z,7.60
2018-10-17T17:12:00.205Z,8.23
2018-10-17T17:14:27.927Z,6.90
2018-10-17T17:16:55.607Z,7.80
2018-10-17T17:19:23.339Z,8.40
2018-10-17T17:21:50.935Z,9.27
2018-10-17T17:24:18.639Z,8.30
2018-10-17T17:26:46.383Z,10.90
2018-10-17T17:29:14.051Z,8.90
2018-10-17T17:31:41.675Z,7.97
2018-10-17T17:34:09.324Z,8.77
2018-10-17T17:36:36.957Z,10.53
2018-10-17T17:39:06.808Z,9.53
2018-10-17T17:41:34.447Z,10.20
2018-10-17T17:44:02.073Z,8.83
2018-10-17T17:46:29.820Z,10.80
2018-10-17T17:48:57.458Z,11.03
2018-10-17T17:51:25.148Z,8.60
2018-10-17T17:53:52.782Z,7.90
2018-10-17T17:56:20.434Z,9.60
2018-10-17T17:58:48.103Z,8.50
2018-10-17T18:01:15.757Z,12.00
2018-10-17T18:03:43.427Z,11.63
2018-10-17T18:06:11.063Z,8.00
2018-10-17T18:08:38.723Z,9.03
2018-10-17T18:11:16.326Z,9.63
2018-10-17T18:13:44.241Z,8.57
2018-10-17T18:16:11.967Z,8.40
2018-10-17T18:18:39.617Z,9.40
2018-10-17T18:21:07.277Z,10.00
2018-10-17T18:23:34.938Z,9.57
2018-10-17T18:26:02.690Z,11.93
2018-10-17T18:28:30.342Z,10.17
2018-10-17T18:30:58.015Z,9.43
2018-10-17T18:33:25.843Z,9.73
2018-10-17T18:35:53.481Z,8.93
2018-10-17T18:38:21.108Z,9.60
2018-10-17T18:40:48.936Z,11.43
2018-10-17T18:43:16.583Z,8.17
2018-10-17T18:45:44.447Z,11.93
2018-10-17T18:48:11.942Z,11.10
2018-10-17T18:50:39.583Z,9.83
2018-10-17T18:53:07.312Z,9.40
2018-10-17T18:55:34.953Z,11.73
2018-10-17T18:58:02.710Z,10.43
2018-10-17T19:00:30.373Z,11.97
2018-10-17T19:02:58.107Z,11.43
2018-10-17T19:05:25.718Z,10.10
2018-10-17T19:07:53.382Z,10.33
2018-10-17T19:10:21.012Z,11.63
2018-10-17T19:12:48.703Z,10.03
2018-10-17T19:15:16.487Z,11.73
2018-10-17T19:17:44.082Z,8.40
2018-10-17T19:20:11.748Z,10.53
2018-10-17T19:22:39.463Z,11.97
2018-10-17T19:25:07.475Z,9.83
2018-10-17T19:27:36.268Z,9.90
2018-10-17T19:30:05.040Z,10.47
2018-10-17T19:32:32.659Z,9.03
2018-10-17T19:35:00.424Z,12.00
2018-10-17T19:37:28.218Z,13.53
2018-10-17T19:39:56.730Z,9.50
2018-10-17T19:42:24.345Z,12.93
2018-10-17T19:44:52.180Z,9.87
2018-10-17T19:47:19.833Z,11.00
2018-10-17T19:49:47.451Z,8.70
2018-10-17T19:52:15.144Z,9.13
2018-10-17T19:54:42.805Z,10.10
2018-10-17T19:57:10.523Z,10.80
2018-10-17T19:59:38.173Z,11.50
2018-10-17T20:02:06.307Z,9.10
2018-10-17T20:04:33.893Z,8.23
2018-10-17T20:07:01.568Z,12.07
2018-10-17T20:09:29.232Z,9.40
2018-10-17T20:11:56.879Z,11.60
2018-10-17T20:14:24.540Z,11.10
2018-10-17T20:16:52.396Z,16.60
2018-10-17T20:19:20.043Z,19.43
2018-10-17T20:21:47.727Z,14.43
2018-10-17T20:24:15.367Z,11.93
2018-10-17T20:26:43.026Z,14.27
2018-10-17T20:29:10.700Z,11.27
2018-10-17T20:31:38.405Z,11.53
2018-10-17T20:34:06.095Z,11.13
2018-10-17T20:36:33.892Z,13.00
2018-10-17T20:39:01.539Z,12.17
2018-10-17T20:41:29.199Z,12.57
2018-10-17T20:43:57.418Z,11.93
2018-10-17T20:46:25.049Z,11.77
2018-10-17T20:48:52.750Z,10.60
2018-10-17T20:51:20.411Z,12.90
2018-10-17T20:53:48.102Z,12.97
2018-10-17T20:56:15.825Z,13.77
2018-10-17T20:58:43.447Z,12.23
2018-10-17T21:01:11.097Z,13.47
2018-10-17T21:03:38.747Z,12.90
2018-10-17T21:06:06.365Z,11.53
2018-10-17T21:08:34.045Z,12.70
2018-10-17T21:11:01.669Z,11.30
2018-10-17T21:13:29.306Z,11.77
2018-10-17T21:15:56.966Z,12.33
2018-10-17T21:18:24.697Z,15.07
2018-10-17T21:20:52.239Z,13.80
2018-10-17T21:23:19.835Z,12.93
2018-10-17T21:25:47.547Z,13.33
2018-10-17T21:28:15.150Z,15.50
2018-10-17T21:30:42.809Z,22.20
2018-10-17T21:33:10.459Z,17.53
2018-10-17T21:35:38.121Z,13.47
2018-10-17T21:38:05.776Z,18.20
2018-10-17T21:40:33.415Z,15.93
2018-10-17T21:43:01.043Z,18.17
2018-10-17T21:45:28.725Z,19.07
2018-10-17T21:47:56.355Z,20.83
2018-10-17T21:50:23.995Z,19.67
2018-10-17T21:52:51.613Z,15.13
2018-10-17T21:55:19.258Z,15.40
2018-10-17T21:57:46.982Z,19.40
2018-10-17T22:00:14.654Z,15.97
2018-10-17T22:02:42.243Z,17.80
2018-10-17T22:05:10.596Z,19.50
2018-10-17T22:07:38.203Z,21.23
2018-10-17T22:10:06.643Z,16.00
2018-10-17T22:12:34.381Z,14.60
2018-10-17T22:15:02.152Z,17.30
2018-10-17T22:17:30.366Z,19.57
2018-10-17T22:19:58.110Z,16.13
2018-10-17T22:22:26.374Z,16.03
2018-10-17T22:24:54.682Z,16.10
2018-10-17T22:27:22.523Z,16.93
2018-10-17T22:29:50.205Z,16.70
2018-10-17T22:32:17.856Z,16.97
2018-10-17T22:34:45.838Z,17.93
2018-10-17T22:37:13.486Z,15.40
2018-10-17T22:39:41.150Z,15.10
2018-10-17T22:42:08.811Z,19.83
2018-10-17T22:44:36.575Z,14.17
2018-10-17T22:47:04.966Z,14.43
2018-10-17T22:49:32.596Z,19.97
2018-10-17T22:52:00.222Z,14.63
2018-10-17T22:54:28.038Z,13.37
2018-10-17T22:56:55.722Z,17.00
2018-10-17T22:59:23.308Z,12.63
2018-10-17T23:01:51.001Z,13.70
2018-10-17T23:04:18.671Z,16.93
2018-10-17T23:06:46.459Z,14.07
2018-10-17T23:09:15.071Z,17.60
2018-10-17T23:11:43.446Z,14.03
2018-10-17T23:14:11.474Z,14.83
2018-10-17T23:16:40.000Z,14.20
2018-10-17T23:19:08.536Z,14.87
2018-10-17T23:21:36.234Z,16.83
2018-10-17T23:24:03.934Z,13.53
2018-10-17T23:26:32.344Z,14.33
2018-10-17T23:28:59.947Z,16.80
2018-10-17T23:31:27.561Z,13.47
2018-10-17T23:33:55.144Z,15.00
2018-10-17T23:36:23.049Z,16.17
2018-10-17T23:38:51.235Z,15.23
2018-10-17T23:41:19.047Z,14.00
2018-10-17T23:43:46.840Z,19.00
2018-10-17T23:46:14.503Z,14.97
2018-10-17T23:48:42.187Z,18.20
2018-10-17T23:51:10.136Z,15.20
2018-10-17T23:53:37.819Z,17.00
2018-10-17T23:56:05.697Z,14.20
2018-10-17T23:58:33.324Z,14.77
